createdAt,value
2017-02-27T00:01:11.842Z,23.5
2017-02-27T00:03:44.340Z,23.5
2017-02-27T00:06:16.813Z,23.5
2017-02-27T00:08:49.707Z,23.5
2017-02-27T00:11:22.204Z,23.5
2017-02-27T00:13:54.716Z,23.5
2017-02-27T00:16:27.212Z,23.5
2017-02-27T00:19:00.119Z,23.5
2017-02-27T00:21:32.613Z,23.5
2017-02-27T00:24:05.524Z,23.5
2017-02-27T00:26:38.021Z,23.5
2017-02-27T00:29:10.501Z,23.5
2017-02-27T00:31:43.179Z,23.5
2017-02-27T00:34:15.659Z,23.4
2017-02-27T00:36:48.158Z,23.5
2017-02-27T00:39:20.637Z,23.5
2017-02-27T00:41:53.125Z,23.5
2017-02-27T00:44:25.596Z,23.5
2017-02-27T00:46:58.093Z,23.5
2017-02-27T00:49:31.012Z,23.5
2017-02-27T00:52:03.920Z,23.5
2017-02-27T00:54:36.813Z,23.4
2017-02-27T00:57:09.319Z,23.5
2017-02-27T00:59:42.231Z,23.5
2017-02-27T01:02:14.740Z,23.5
2017-02-27T01:04:47.235Z,23.5
2017-02-27T01:07:19.739Z,23.4
2017-02-27T01:09:52.660Z,23.5
2017-02-27T01:12:25.144Z,23.5
2017-02-27T01:14:58.048Z,23.5
2017-02-27T01:17:30.534Z,23.5
2017-02-27T01:20:03.026Z,23.5
2017-02-27T01:22:35.945Z,23.5
2017-02-27T01:25:08.876Z,23.5
2017-02-27T01:27:41.356Z,23.5
2017-02-27T01:30:13.830Z,23.5
2017-02-27T01:32:46.331Z,23.5
2017-02-27T01:38:47.235Z,23.5
2017-02-27T01:52:42.082Z,23.5
2017-02-27T01:55:14.631Z,23.5
2017-02-27T01:57:47.568Z,23.5
2017-02-27T02:00:20.519Z,23.5
2017-02-27T02:02:53.014Z,23.4
2017-02-27T02:05:25.492Z,23.4
2017-02-27T02:07:57.983Z,23.5
2017-02-27T02:10:30.684Z,23.5
2017-02-27T02:13:03.193Z,23.5
2017-02-27T02:15:35.678Z,23.5
2017-02-27T02:18:08.592Z,23.5
2017-02-27T02:20:41.529Z,23.4
2017-02-27T02:23:14.032Z,23.5
2017-02-27T02:25:46.512Z,23.4
2017-02-27T02:28:19.656Z,23.4
2017-02-27T02:30:53.027Z,23.5
2017-02-27T02:33:25.959Z,23.5
2017-02-27T02:35:58.455Z,23.5
2017-02-27T02:38:31.679Z,23.4
2017-02-27T02:41:04.597Z,23.5
2017-02-27T02:43:37.495Z,23.4
2017-02-27T02:46:10.001Z,23.4
2017-02-27T02:48:42.492Z,23.4
2017-02-27T02:51:14.975Z,23.4
2017-02-27T02:53:47.455Z,23.5
2017-02-27T02:56:20.362Z,23.4
2017-02-27T02:58:52.853Z,23.4
2017-02-27T03:01:25.814Z,23.5
2017-02-27T03:03:58.742Z,23.5
2017-02-27T03:06:31.259Z,23.4
2017-02-27T03:09:03.761Z,23.5
2017-02-27T03:11:36.281Z,23.5
2017-02-27T03:14:08.773Z,23.5
2017-02-27T03:16:41.253Z,23.5
2017-02-27T03:19:13.761Z,23.5
2017-02-27T03:21:46.254Z,23.5
2017-02-27T03:24:18.748Z,23.5
2017-02-27T03:26:51.240Z,23.5
2017-02-27T03:29:23.733Z,23.5
2017-02-27T03:31:56.239Z,23.4
2017-02-27T03:34:28.712Z,23.4
2017-02-27T03:37:01.218Z,23.5
2017-02-27T03:39:33.721Z,23.5
2017-02-27T03:42:06.635Z,23.5
2017-02-27T03:44:39.127Z,23.4
2017-02-27T03:47:11.607Z,23.4
2017-02-27T03:49:44.523Z,23.5
2017-02-27T03:52:17.009Z,23.4
2017-02-27T03:54:49.920Z,23.5
2017-02-27T03:57:22.842Z,23.5
2017-02-27T03:59:55.328Z,23.4
2017-02-27T04:02:28.241Z,23.4
2017-02-27T04:05:01.570Z,23.5
2017-02-27T04:07:34.476Z,23.4
2017-02-27T04:10:06.971Z,23.4
2017-02-27T04:12:39.456Z,23.5
2017-02-27T04:15:11.963Z,23.5
2017-02-27T04:17:44.466Z,23.4
2017-02-27T04:20:17.391Z,23.4
2017-02-27T04:22:49.875Z,23.5
2017-02-27T04:25:22.365Z,23.4
2017-02-27T04:27:54.846Z,23.5
2017-02-27T04:30:27.332Z,23.5
2017-02-27T04:32:59.814Z,23.5
2017-02-27T04:35:32.299Z,23.5
2017-02-27T04:38:04.787Z,23.5
2017-02-27T04:40:37.697Z,23.5
2017-02-27T04:43:10.198Z,23.5
2017-02-27T04:45:42.715Z,23.6
2017-02-27T04:48:16.037Z,23.6
2017-02-27T04:50:48.532Z,23.6
2017-02-27T04:53:21.021Z,23.6
2017-02-27T04:55:53.502Z,23.6
2017-02-27T04:58:25.990Z,23.6
2017-02-27T05:00:58.911Z,23.6
2017-02-27T05:03:31.398Z,23.6
2017-02-27T05:06:03.891Z,23.6
2017-02-27T05:08:36.394Z,23.6
2017-02-27T05:11:08.898Z,23.6
2017-02-27T05:13:41.378Z,23.6
2017-02-27T05:16:13.884Z,23.5
2017-02-27T05:18:46.359Z,23.6
2017-02-27T05:21:18.842Z,23.5
2017-02-27T05:23:51.769Z,23.5
2017-02-27T05:26:24.261Z,23.5
2017-02-27T05:28:56.744Z,23.5
2017-02-27T05:31:29.233Z,23.5
2017-02-27T05:34:01.716Z,23.5
2017-02-27T05:36:34.205Z,23.5
2017-02-27T05:39:07.111Z,23.5
2017-02-27T05:41:40.015Z,23.5
2017-02-27T05:44:12.499Z,23.5
2017-02-27T05:46:44.990Z,23.5
2017-02-27T05:49:17.463Z,23.5
2017-02-27T05:51:49.945Z,23.5
2017-02-27T05:54:22.460Z,23.5
2017-02-27T05:56:55.391Z,23.5
2017-02-27T05:59:28.301Z,23.6
2017-02-27T06:02:00.788Z,23.6
2017-02-27T06:04:33.270Z,23.6
2017-02-27T06:07:05.775Z,23.6
2017-02-27T06:09:38.253Z,23.6
2017-02-27T06:12:11.586Z,23.6
2017-02-27T06:14:44.088Z,23.6
2017-02-27T06:17:16.582Z,23.6
2017-02-27T06:19:49.087Z,23.6
2017-02-27T06:22:21.990Z,23.6
2017-02-27T06:24:54.474Z,23.6
2017-02-27T06:27:27.398Z,23.6
2017-02-27T06:30:00.335Z,23.6
2017-02-27T06:32:32.827Z,23.6
2017-02-27T06:35:05.308Z,23.6
2017-02-27T06:37:37.800Z,23.7
2017-02-27T06:40:10.740Z,23.7
2017-02-27T06:42:43.232Z,23.7
2017-02-27T06:45:15.731Z,23.8
2017-02-27T06:47:48.218Z,23.8
2017-02-27T06:50:21.290Z,23.8
2017-02-27T06:52:53.790Z,23.8
2017-02-27T06:55:26.303Z,23.8
2017-02-27T06:57:58.801Z,23.8
2017-02-27T07:00:31.418Z,23.8
2017-02-27T07:03:04.005Z,23.9
2017-02-27T07:05:36.507Z,23.8
2017-02-27T07:08:09.017Z,23.8
2017-02-27T07:10:42.149Z,23.8
2017-02-27T07:13:14.635Z,23.9
2017-02-27T07:15:47.144Z,23.8
2017-02-27T07:18:20.128Z,23.8
2017-02-27T07:20:52.631Z,23.8
2017-02-27T07:23:25.127Z,23.8
2017-02-27T07:25:57.632Z,23.7
2017-02-27T07:28:30.133Z,23.7
2017-02-27T07:31:02.619Z,23.7
2017-02-27T07:33:35.101Z,23.6
2017-02-27T07:36:07.757Z,23.6
2017-02-27T07:38:40.272Z,23.6
2017-02-27T07:41:13.199Z,23.6
2017-02-27T07:43:45.682Z,23.6
2017-02-27T07:46:18.656Z,23.6
2017-02-27T07:48:51.586Z,23.6
2017-02-27T07:51:24.612Z,23.6
2017-02-27T07:53:57.337Z,23.6
2017-02-27T07:56:29.938Z,23.6
2017-02-27T07:59:02.858Z,23.6
2017-02-27T08:01:35.330Z,23.7
2017-02-27T08:04:08.260Z,23.7
2017-02-27T08:06:40.763Z,23.7
2017-02-27T08:09:13.281Z,23.7
2017-02-27T08:11:45.761Z,23.7
2017-02-27T08:14:18.246Z,23.7
2017-02-27T08:16:50.740Z,23.7
2017-02-27T08:19:23.233Z,23.7
2017-02-27T08:21:56.143Z,23.7
2017-02-27T08:24:28.648Z,23.7
2017-02-27T08:27:01.173Z,23.7
2017-02-27T08:29:33.657Z,23.7
2017-02-27T08:32:06.147Z,23.7
2017-02-27T08:34:38.839Z,23.7
2017-02-27T08:37:11.320Z,23.7
2017-02-27T08:39:44.217Z,23.7
2017-02-27T08:42:16.739Z,23.7
2017-02-27T08:44:49.223Z,23.7
2017-02-27T08:47:22.132Z,23.7
2017-02-27T08:49:55.079Z,23.7
2017-02-27T08:52:27.787Z,23.7
2017-02-27T08:55:00.722Z,23.7
2017-02-27T08:57:33.657Z,23.7
2017-02-27T09:00:06.149Z,23.7
2017-02-27T09:02:38.645Z,23.7
2017-02-27T09:05:11.134Z,23.7
2017-02-27T09:07:43.633Z,23.7
2017-02-27T09:10:16.557Z,23.7
2017-02-27T09:12:49.474Z,23.7
2017-02-27T09:15:21.970Z,23.7
2017-02-27T09:17:55.511Z,23.7
2017-02-27T09:20:28.862Z,23.7
2017-02-27T09:23:02.195Z,23.7
2017-02-27T09:25:34.705Z,23.7
2017-02-27T09:28:07.656Z,23.7
2017-02-27T09:30:40.154Z,23.7
2017-02-27T09:33:13.076Z,23.7
2017-02-27T09:35:45.988Z,23.7
2017-02-27T09:38:18.488Z,23.7
2017-02-27T09:40:50.974Z,23.7
2017-02-27T09:43:23.452Z,23.7
2017-02-27T09:45:56.363Z,23.7
2017-02-27T09:48:28.843Z,23.7
2017-02-27T09:51:01.340Z,23.7
2017-02-27T09:53:33.823Z,23.7
2017-02-27T09:56:06.297Z,23.7
2017-02-27T09:58:38.792Z,23.7
2017-02-27T10:01:11.727Z,23.7
2017-02-27T10:03:44.229Z,23.7
2017-02-27T10:06:16.734Z,23.7
2017-02-27T10:08:49.658Z,23.7
2017-02-27T10:11:22.147Z,23.7
2017-02-27T10:13:54.629Z,23.7
2017-02-27T10:16:27.136Z,23.7
2017-02-27T10:18:59.611Z,23.7
2017-02-27T10:21:32.086Z,23.7
2017-02-27T10:24:04.997Z,23.7
2017-02-27T10:26:37.524Z,23.7
2017-02-27T10:29:10.446Z,23.7
2017-02-27T10:31:43.413Z,23.7
2017-02-27T10:34:15.904Z,23.7
2017-02-27T10:36:48.796Z,23.7
2017-02-27T10:39:21.294Z,23.7
2017-02-27T10:41:53.772Z,23.7
2017-02-27T10:44:26.266Z,23.7
2017-02-27T10:46:58.764Z,23.7
2017-02-27T10:49:31.267Z,23.7
2017-02-27T10:52:03.785Z,23.7
2017-02-27T10:54:36.288Z,23.7
2017-02-27T10:57:08.785Z,23.7
2017-02-27T10:59:41.304Z,23.7
2017-02-27T11:02:13.794Z,23.7
2017-02-27T11:04:46.279Z,23.7
2017-02-27T11:07:19.189Z,23.7
2017-02-27T11:09:51.699Z,23.7
2017-02-27T11:12:24.254Z,23.7
2017-02-27T11:14:56.738Z,23.7
2017-02-27T11:17:29.237Z,23.7
2017-02-27T11:20:02.591Z,23.7
2017-02-27T11:22:35.525Z,23.8
2017-02-27T11:25:08.431Z,23.8
2017-02-27T11:27:40.936Z,23.8
2017-02-27T11:30:13.450Z,23.8
2017-02-27T11:32:45.956Z,23.8
2017-02-27T11:35:18.594Z,23.7
2017-02-27T11:37:51.116Z,23.7
2017-02-27T11:40:23.636Z,23.6
2017-02-27T11:42:56.126Z,23.6
2017-02-27T11:45:28.650Z,23.5
2017-02-27T11:48:01.408Z,23.4
2017-02-27T11:50:35.178Z,23.4
2017-02-27T11:53:07.796Z,23.4
2017-02-27T11:55:40.271Z,23.4
2017-02-27T11:58:12.971Z,23.4
2017-02-27T12:00:45.459Z,23.4
2017-02-27T12:03:17.941Z,23.4
2017-02-27T12:05:50.860Z,23.4
2017-02-27T12:08:23.364Z,23.5
2017-02-27T12:10:56.291Z,23.5
2017-02-27T12:13:28.808Z,23.6
2017-02-27T12:16:02.149Z,23.6
2017-02-27T12:18:34.645Z,23.6
2017-02-27T12:21:07.161Z,23.6
2017-02-27T12:23:39.653Z,23.5
2017-02-27T12:26:12.348Z,23.6
2017-02-27T12:28:44.838Z,23.6
2017-02-27T12:31:17.334Z,23.6
2017-02-27T12:33:49.839Z,23.6
2017-02-27T12:36:22.589Z,23.5
2017-02-27T12:38:55.101Z,23.5
2017-02-27T12:41:27.605Z,23.5
2017-02-27T12:44:00.293Z,23.5
2017-02-27T12:46:32.802Z,23.6
2017-02-27T12:49:05.717Z,23.6
2017-02-27T12:51:38.193Z,23.6
2017-02-27T12:54:10.908Z,23.6
2017-02-27T12:56:43.410Z,23.6
2017-02-27T12:59:15.922Z,23.7
2017-02-27T13:01:48.418Z,23.7
2017-02-27T13:04:20.921Z,23.7
2017-02-27T13:06:53.999Z,23.7
2017-02-27T13:09:26.485Z,23.7
2017-02-27T13:11:58.984Z,23.7
2017-02-27T13:14:31.911Z,23.7
2017-02-27T13:17:04.438Z,23.8
2017-02-27T13:19:36.932Z,23.8
2017-02-27T13:22:09.618Z,23.7
2017-02-27T13:24:42.121Z,23.8
2017-02-27T13:27:14.890Z,23.8
2017-02-27T13:29:47.395Z,23.8
2017-02-27T13:32:19.872Z,23.8
2017-02-27T13:34:52.366Z,23.8
2017-02-27T13:37:24.880Z,23.8
2017-02-27T13:39:57.356Z,23.8
2017-02-27T13:42:29.883Z,23.8
2017-02-27T13:45:02.776Z,23.8
2017-02-27T13:47:35.696Z,23.8
2017-02-27T13:50:08.848Z,23.8
2017-02-27T13:52:41.346Z,23.8
2017-02-27T13:55:14.291Z,23.8
2017-02-27T13:57:46.774Z,23.8
2017-02-27T14:00:19.277Z,23.8
2017-02-27T14:02:51.783Z,23.8
2017-02-27T14:05:24.730Z,23.8
2017-02-27T14:07:57.257Z,23.8
2017-02-27T14:10:29.757Z,23.8
2017-02-27T14:13:02.243Z,23.8
2017-02-27T14:15:35.187Z,23.8
2017-02-27T14:18:08.259Z,23.9
2017-02-27T14:20:40.761Z,23.9
2017-02-27T14:23:13.243Z,24
2017-02-27T14:25:46.153Z,24
2017-02-27T14:28:19.453Z,24.1
2017-02-27T14:30:51.951Z,24
2017-02-27T14:33:24.440Z,24
2017-02-27T14:35:56.941Z,24
2017-02-27T14:38:29.403Z,24
2017-02-27T14:41:03.250Z,24
2017-02-27T14:43:35.741Z,24.1
2017-02-27T14:46:08.263Z,24.1
2017-02-27T14:48:41.160Z,24.1
2017-02-27T14:51:14.055Z,24
2017-02-27T14:53:46.764Z,24
2017-02-27T14:56:19.275Z,23.9
2017-02-27T14:58:51.752Z,23.9
2017-02-27T15:01:24.252Z,23.8
2017-02-27T15:03:57.157Z,23.8
2017-02-27T15:06:29.657Z,23.8
2017-02-27T15:09:02.166Z,23.8
2017-02-27T15:11:34.663Z,23.8
2017-02-27T15:14:07.148Z,23.7
2017-02-27T15:16:40.074Z,23.6
2017-02-27T15:19:12.577Z,23.5
2017-02-27T15:21:45.486Z,23.5
2017-02-27T15:24:17.995Z,23.5
2017-02-27T15:26:50.910Z,23.5
2017-02-27T15:29:23.815Z,23.4
2017-02-27T15:31:56.339Z,23.4
2017-02-27T15:34:28.858Z,23.5
2017-02-27T15:37:01.356Z,23.6
2017-02-27T15:39:34.686Z,23.7
2017-02-27T15:42:07.188Z,23.8
2017-02-27T15:44:40.133Z,23.8
2017-02-27T15:47:12.613Z,23.9
2017-02-27T15:49:45.126Z,23.9
2017-02-27T15:52:17.609Z,24
2017-02-27T15:54:50.108Z,24
2017-02-27T15:57:23.384Z,24
2017-02-27T15:59:56.319Z,24
2017-02-27T16:02:28.813Z,24
2017-02-27T16:05:01.336Z,24
2017-02-27T16:07:34.262Z,24
2017-02-27T16:10:06.737Z,24
2017-02-27T16:12:39.667Z,24
2017-02-27T16:15:12.392Z,24
2017-02-27T16:17:44.892Z,23.9
2017-02-27T16:20:17.879Z,23.9
2017-02-27T16:22:50.427Z,23.9
2017-02-27T16:25:22.930Z,23.9
2017-02-27T16:27:55.462Z,23.8
2017-02-27T16:30:27.958Z,23.8
2017-02-27T16:33:00.451Z,23.8
2017-02-27T16:35:32.950Z,23.8
2017-02-27T16:38:05.456Z,23.8
2017-02-27T16:40:37.940Z,23.8
2017-02-27T16:43:10.643Z,23.8
2017-02-27T16:45:43.143Z,23.9
2017-02-27T16:48:15.646Z,23.9
2017-02-27T16:50:48.171Z,23.8
2017-02-27T16:53:21.098Z,23.8
2017-02-27T16:55:53.606Z,23.7
2017-02-27T16:58:26.091Z,23.7
2017-02-27T17:00:58.596Z,23.8
2017-02-27T17:03:31.081Z,23.8
2017-02-27T17:06:03.567Z,23.8
2017-02-27T17:08:36.036Z,23.6
2017-02-27T17:11:08.518Z,23.4
2017-02-27T17:13:41.024Z,23.3
2017-02-27T17:16:13.520Z,23.3
2017-02-27T17:18:46.838Z,23.3
2017-02-27T17:21:19.359Z,23.4
2017-02-27T17:23:51.839Z,23.4
2017-02-27T17:26:24.320Z,23.4
2017-02-27T17:28:56.817Z,23.4
2017-02-27T17:31:29.710Z,23.5
2017-02-27T17:34:03.055Z,23.5
2017-02-27T17:36:35.549Z,23.6
2017-02-27T17:39:08.676Z,23.6
2017-02-27T17:41:41.145Z,23.6
2017-02-27T17:44:13.640Z,23.6
2017-02-27T17:46:46.136Z,23.6
2017-02-27T17:49:18.630Z,23.6
2017-02-27T17:51:51.716Z,23.6
2017-02-27T17:54:24.221Z,23.6
2017-02-27T17:56:56.713Z,23.6
2017-02-27T17:59:29.226Z,23.6
2017-02-27T18:02:01.722Z,23.6
2017-02-27T18:04:34.236Z,23.6
2017-02-27T18:07:06.749Z,23.6
2017-02-27T18:09:39.243Z,23.6
2017-02-27T18:12:11.730Z,23.6
2017-02-27T18:14:44.221Z,23.6
2017-02-27T18:17:16.720Z,23.6
2017-02-27T18:19:49.628Z,23.6
2017-02-27T18:22:22.130Z,23.6
2017-02-27T18:24:54.607Z,23.6
2017-02-27T18:27:27.106Z,23.6
2017-02-27T18:30:00.074Z,23.6
2017-02-27T18:32:32.576Z,23.6
2017-02-27T18:35:05.056Z,23.6
2017-02-27T18:37:37.534Z,23.6
2017-02-27T18:40:10.039Z,23.6
2017-02-27T18:42:43.139Z,23.6
2017-02-27T18:45:15.663Z,23.6
2017-02-27T18:47:48.165Z,23.6
2017-02-27T18:50:21.081Z,23.6
2017-02-27T18:52:53.583Z,23.6
2017-02-27T18:55:26.077Z,23.6
2017-02-27T18:57:58.577Z,23.6
2017-02-27T19:00:31.930Z,23.6
2017-02-27T19:03:04.417Z,23.5
2017-02-27T19:05:37.121Z,23.6
2017-02-27T19:08:09.621Z,23.6
2017-02-27T19:10:42.553Z,23.6
2017-02-27T19:13:15.031Z,23.7
2017-02-27T19:15:47.521Z,23.7
2017-02-27T19:18:20.028Z,23.8
2017-02-27T19:20:53.367Z,23.8
2017-02-27T19:23:26.383Z,23.8
2017-02-27T19:25:58.898Z,23.8
2017-02-27T19:28:31.830Z,23.8
2017-02-27T19:31:04.350Z,23.8
2017-02-27T19:33:36.967Z,23.7
2017-02-27T19:36:09.473Z,23.7
2017-02-27T19:38:42.402Z,23.7
2017-02-27T19:41:14.971Z,23.7
2017-02-27T19:43:47.472Z,23.7
2017-02-27T19:46:19.967Z,23.7
2017-02-27T19:48:52.885Z,23.8
2017-02-27T19:51:25.804Z,23.7
2017-02-27T19:53:59.275Z,23.7
2017-02-27T19:56:31.960Z,23.7
2017-02-27T19:59:04.585Z,23.7
2017-02-27T20:01:37.503Z,23.7
2017-02-27T20:04:10.011Z,23.7
2017-02-27T20:06:42.675Z,23.7
2017-02-27T20:09:15.165Z,23.6
2017-02-27T20:11:48.676Z,23.6
2017-02-27T20:14:21.593Z,23.7
2017-02-27T20:16:54.217Z,23.6
2017-02-27T20:19:26.701Z,23.6
2017-02-27T20:22:00.037Z,23.6
2017-02-27T20:24:32.529Z,23.6
2017-02-27T20:27:05.026Z,23.6
2017-02-27T20:29:37.519Z,23.6
2017-02-27T20:32:10.001Z,23.6
2017-02-27T20:34:42.502Z,23.6
2017-02-27T20:37:15.240Z,23.6
2017-02-27T20:39:47.736Z,23.6
2017-02-27T20:42:20.233Z,23.6
2017-02-27T20:44:52.910Z,23.6
2017-02-27T20:47:25.509Z,23.6
2017-02-27T20:49:58.027Z,23.6
2017-02-27T20:52:30.523Z,23.6
2017-02-27T20:55:03.025Z,23.6
2017-02-27T20:57:35.949Z,23.6
2017-02-27T21:00:08.440Z,23.6
2017-02-27T21:02:41.192Z,23.6
2017-02-27T21:05:13.680Z,23.6
2017-02-27T21:07:46.594Z,23.6
2017-02-27T21:10:19.079Z,23.6
2017-02-27T21:12:51.564Z,23.6
2017-02-27T21:15:24.061Z,23.6
2017-02-27T21:17:57.018Z,23.7
2017-02-27T21:20:29.806Z,23.6
2017-02-27T21:23:02.896Z,23.6
2017-02-27T21:25:35.397Z,23.6
2017-02-27T21:28:07.873Z,23.6
2017-02-27T21:30:40.354Z,23.6
2017-02-27T21:33:12.859Z,23.6
2017-02-27T21:35:45.349Z,23.6
2017-02-27T21:38:18.317Z,23.6
2017-02-27T21:40:51.263Z,23.6
2017-02-27T21:43:23.749Z,23.6
2017-02-27T21:45:56.526Z,23.6
2017-02-27T21:48:29.103Z,23.6
2017-02-27T21:51:01.609Z,23.6
2017-02-27T21:53:34.123Z,23.6
2017-02-27T21:56:06.609Z,23.6
2017-02-27T21:58:39.515Z,23.6
2017-02-27T22:01:12.843Z,23.6
2017-02-27T22:03:45.762Z,23.6
2017-02-27T22:06:18.259Z,23.6
2017-02-27T22:08:51.178Z,23.6
2017-02-27T22:11:24.099Z,23.6
2017-02-27T22:13:56.580Z,23.6
2017-02-27T22:16:29.503Z,23.6
2017-02-27T22:19:02.001Z,23.6
2017-02-27T22:21:34.488Z,23.6
2017-02-27T22:24:06.960Z,23.6
2017-02-27T22:26:39.879Z,23.6
2017-02-27T22:29:12.389Z,23.6
2017-02-27T22:31:44.896Z,23.6
2017-02-27T22:34:17.383Z,23.6
2017-02-27T22:36:50.332Z,23.6
2017-02-27T22:39:22.819Z,23.6
2017-02-27T22:41:55.325Z,23.6
2017-02-27T22:44:28.235Z,23.6
2017-02-27T22:47:00.722Z,23.6
2017-02-27T22:49:33.198Z,23.6
2017-02-27T22:52:05.681Z,23.5
2017-02-27T22:54:38.180Z,23.6
2017-02-27T22:57:10.645Z,23.5
2017-02-27T22:59:43.558Z,23.5
2017-02-27T23:02:16.038Z,23.5
2017-02-27T23:04:48.529Z,23.5
2017-02-27T23:07:21.015Z,23.5
2017-02-27T23:09:53.916Z,23.6
2017-02-27T23:12:26.403Z,23.5
2017-02-27T23:14:58.925Z,23.5
2017-02-27T23:17:31.847Z,23.5
2017-02-27T23:20:04.797Z,23.5
2017-02-27T23:22:37.276Z,23.5
2017-02-27T23:25:09.760Z,23.5
2017-02-27T23:27:42.267Z,23.5
2017-02-27T23:30:14.743Z,23.5
2017-02-27T23:32:47.238Z,23.5
2017-02-27T23:35:19.772Z,23.5
2017-02-27T23:37:52.682Z,23.5
2017-02-27T23:40:25.185Z,23.5
2017-02-27T23:42:58.112Z,23.5
2017-02-27T23:45:30.602Z,23.5
2017-02-27T23:48:03.100Z,23.5
2017-02-27T23:50:35.570Z,23.5
2017-02-27T23:53:08.502Z,23.5
2017-02-27T23:55:41.009Z,23.5
2017-02-27T23:58:13.503Z,23.5
